Time;durP1;ratioP1;P1;durP2;ratioP2;P2;SDS_P1;SDS_P2;PMS_P1;PMS_P2;Temp;Humidity;BMP_temperature;BMP_pressure;BME280_temperature;BME280_humidity;BME280_pressure;Samples;Min_cycle;Max_cycle;Signal;HPM_P1;HPM_P2
2021/01/29 00:01:58;;;;;;;1.60;1.27;;;11.00;99.90;;;;;;4921184;28;20874;-88
2021/01/29 00:04:24;;;;;;;1.40;1.30;;;10.90;99.90;;;;;;4927300;29;20310;-88
2021/01/29 00:06:53;;;;;;;1.40;1.30;;;10.90;99.90;;;;;;4943108;28;20467;-87
2021/01/29 00:09:19;;;;;;;1.30;1.10;;;10.90;99.90;;;;;;4933012;28;20986;-86
2021/01/29 00:11:48;;;;;;;1.50;1.17;;;10.80;99.90;;;;;;4944988;28;20448;-87
2021/01/29 00:14:14;;;;;;;1.40;1.10;;;10.70;99.90;;;;;;4947930;28;20207;-86
2021/01/29 00:16:43;;;;;;;1.93;1.33;;;10.80;99.90;;;;;;4926136;28;20435;-87
2021/01/29 00:19:09;;;;;;;1.40;1.20;;;10.80;99.90;;;;;;4927686;28;20513;-87
2021/01/29 00:21:34;;;;;;;3.30;1.40;;;10.80;99.90;;;;;;4939371;28;20447;-87
2021/01/29 00:24:00;;;;;;;1.30;1.20;;;10.80;99.90;;;;;;4913597;28;20462;-88
2021/01/29 00:26:26;;;;;;;1.60;1.30;;;10.80;99.90;;;;;;4928712;29;20203;-88
2021/01/29 00:28:54;;;;;;;1.43;1.17;;;10.80;99.90;;;;;;4929872;28;20214;-87
2021/01/29 00:31:19;;;;;;;2.67;1.30;;;10.90;99.90;;;;;;4929515;28;20190;-88
2021/01/29 00:33:45;;;;;;;2.00;1.00;;;10.90;99.90;;;;;;4931774;28;20463;-86
2021/01/29 00:36:10;;;;;;;1.70;1.40;;;10.90;99.90;;;;;;4933315;28;20568;-88
2021/01/29 00:38:36;;;;;;;1.70;1.30;;;10.90;99.90;;;;;;4929574;28;20203;-88
2021/01/29 00:41:02;;;;;;;1.70;1.47;;;10.80;99.90;;;;;;4924425;28;20221;-87
2021/01/29 00:43:28;;;;;;;1.43;1.30;;;10.90;99.90;;;;;;4935652;29;20297;-86
2021/01/29 00:45:53;;;;;;;2.80;2.60;;;10.80;99.90;;;;;;4948549;28;20653;-86
2021/01/29 00:48:19;;;;;;;2.77;1.37;;;10.80;99.90;;;;;;4948002;28;20223;-85
2021/01/29 00:50:44;;;;;;;1.50;1.27;;;10.70;99.90;;;;;;4928622;28;20211;-88
2021/01/29 00:53:11;;;;;;;3.37;1.50;;;10.70;99.90;;;;;;4947838;28;20578;-88
2021/01/29 00:55:39;;;;;;;2.50;1.67;;;10.60;99.90;;;;;;4951423;28;20195;-88
2021/01/29 00:58:07;;;;;;;2.03;1.40;;;10.60;99.90;;;;;;4932057;28;20447;-85
2021/01/29 01:00:36;;;;;;;2.23;1.60;;;10.60;99.90;;;;;;4946973;28;20896;-85
2021/01/29 01:03:02;;;;;;;3.30;1.60;;;10.70;99.90;;;;;;4949488;28;20552;-83
2021/01/29 01:05:28;;;;;;;1.50;1.40;;;10.70;99.90;;;;;;4935046;29;20493;-85
2021/01/29 01:07:55;;;;;;;1.73;1.47;;;10.60;99.90;;;;;;4932718;28;20226;-86
2021/01/29 01:10:22;;;;;;;1.50;1.40;;;10.60;99.90;;;;;;4931133;28;20442;-87
2021/01/29 01:12:53;;;;;;;2.00;1.50;;;10.60;99.90;;;;;;4933153;28;20439;-88
2021/01/29 01:15:28;;;;;;;1.43;1.27;;;10.60;99.90;;;;;;4945010;28;20467;-87
2021/01/29 01:17:59;;;;;;;1.73;1.63;;;10.60;99.90;;;;;;4933765;28;20450;-87
2021/01/29 01:20:28;;;;;;;1.53;1.43;;;10.60;99.90;;;;;;4913006;28;20457;-88
2021/01/29 01:22:57;;;;;;;1.70;1.40;;;10.60;99.90;;;;;;4946209;28;20575;-88
2021/01/29 01:25:28;;;;;;;1.73;1.63;;;10.60;99.90;;;;;;4931585;28;20561;-88
2021/01/29 01:27:55;;;;;;;1.27;1.17;;;10.60;99.90;;;;;;4933038;28;21407;-88
2021/01/29 01:30:39;;;;;;;1.53;1.43;;;10.60;99.90;;;;;;4944881;28;20435;-87
2021/01/29 01:33:09;;;;;;;1.83;1.53;;;10.60;99.90;;;;;;4925243;28;20457;-84
2021/01/29 01:35:36;;;;;;;1.50;1.33;;;10.60;99.90;;;;;;4929476;28;20500;-87
2021/01/29 01:38:05;;;;;;;1.30;1.20;;;10.60;99.90;;;;;;4945059;28;20454;-85
2021/01/29 01:40:38;;;;;;;1.40;1.17;;;10.60;99.90;;;;;;4945134;28;20435;-89
2021/01/29 01:43:04;;;;;;;1.30;1.20;;;10.60;99.90;;;;;;4941035;28;20449;-87
2021/01/29 01:45:30;;;;;;;1.20;1.10;;;10.60;99.90;;;;;;4911818;29;20444;-87
2021/01/29 01:48:01;;;;;;;1.73;1.10;;;10.60;99.90;;;;;;4940663;28;20472;-87
2021/01/29 01:50:43;;;;;;;1.23;1.13;;;10.60;99.90;;;;;;4926710;28;20191;-83
2021/01/29 01:53:26;;;;;;;1.40;1.30;;;10.60;99.90;;;;;;4923209;29;20447;-88
2021/01/29 01:56:06;;;;;;;1.40;1.30;;;10.60;99.90;;;;;;4923263;28;20445;-88
2021/01/29 01:58:33;;;;;;;3.20;1.60;;;10.50;99.90;;;;;;4940284;28;20470;-88
2021/01/29 02:00:59;;;;;;;1.20;1.10;;;10.50;99.90;;;;;;4899960;28;20486;-86
2021/01/29 02:03:29;;;;;;;1.40;1.30;;;10.50;99.90;;;;;;4919816;28;21239;-88
2021/01/29 02:05:57;;;;;;;1.30;1.10;;;10.50;99.90;;;;;;4939856;28;20207;-87
2021/01/29 02:08:25;;;;;;;1.63;1.53;;;10.50;99.90;;;;;;4947254;28;20470;-86
2021/01/29 02:10:51;;;;;;;1.60;1.30;;;10.50;99.90;;;;;;4927188;28;20518;-86
2021/01/29 02:13:17;;;;;;;1.53;1.33;;;10.60;99.90;;;;;;4944124;28;20581;-85
2021/01/29 02:15:51;;;;;;;1.87;1.40;;;10.60;99.90;;;;;;4927075;28;20756;-86
2021/01/29 02:18:43;;;;;;;1.70;1.40;;;10.60;99.90;;;;;;4944834;28;20209;-85
2021/01/29 02:21:40;;;;;;;2.30;1.70;;;10.60;99.90;;;;;;4940957;28;20439;-85
2021/01/29 02:24:43;;;;;;;1.30;1.20;;;10.60;99.90;;;;;;4943171;28;20469;-88
2021/01/29 02:27:45;;;;;;;2.37;1.20;;;10.60;99.90;;;;;;4943859;28;20457;-88
2021/01/29 02:30:56;;;;;;;1.20;1.10;;;10.60;99.90;;;;;;4942483;28;20454;-87
2021/01/29 02:33:52;;;;;;;1.47;0.90;;;10.70;99.90;;;;;;4862495;29;20969;-86
2021/01/29 02:36:46;;;;;;;1.30;1.20;;;10.80;99.90;;;;;;4863624;29;21020;-86
2021/01/29 02:39:20;;;;;;;1.50;1.30;;;10.80;99.90;;;;;;4937757;28;20457;-86
2021/01/29 02:42:01;;;;;;;1.20;1.10;;;10.80;99.90;;;;;;4942285;28;20477;-88
2021/01/29 02:44:45;;;;;;;1.10;1.00;;;10.80;99.90;;;;;;4943441;28;20478;-85
2021/01/29 02:47:44;;;;;;;2.60;1.20;;;10.80;99.90;;;;;;4934819;28;20450;-84
2021/01/29 02:50:23;;;;;;;1.17;0.90;;;10.80;99.90;;;;;;4941491;28;20582;-87
2021/01/29 02:53:01;;;;;;;1.50;1.30;;;10.90;99.90;;;;;;4945196;28;20434;-86
2021/01/29 02:55:36;;;;;;;3.47;1.23;;;10.90;99.90;;;;;;4923832;28;20443;-88
2021/01/29 02:58:15;;;;;;;1.10;0.90;;;10.90;99.90;;;;;;4943239;28;20475;-88
2021/01/29 03:00:55;;;;;;;1.00;0.87;;;10.90;99.90;;;;;;4923026;28;20829;-89
2021/01/29 03:03:40;;;;;;;2.30;1.00;;;11.00;99.90;;;;;;4926328;28;20502;-88
2021/01/29 03:06:29;;;;;;;1.60;1.00;;;11.00;99.90;;;;;;4926068;28;20452;-90
2021/01/29 03:09:06;;;;;;;1.23;1.13;;;11.00;99.90;;;;;;4943423;28;20481;-88
2021/01/29 03:11:39;;;;;;;1.00;0.90;;;11.00;99.90;;;;;;4928886;29;20891;-87
2021/01/29 03:14:17;;;;;;;1.10;0.83;;;11.00;99.90;;;;;;4925634;28;20641;-87
2021/01/29 03:17:20;;;;;;;1.07;0.97;;;11.00;99.90;;;;;;4936527;28;20489;-89
2021/01/29 03:20:10;;;;;;;1.10;0.87;;;11.00;99.90;;;;;;4890565;29;20567;-87
2021/01/29 03:22:42;;;;;;;1.27;1.10;;;11.00;99.90;;;;;;4920087;28;20505;-87
2021/01/29 03:25:20;;;;;;;1.93;1.20;;;11.00;99.90;;;;;;4944901;28;20989;-88
2021/01/29 03:27:54;;;;;;;1.00;0.90;;;11.00;99.90;;;;;;4926877;28;20481;-90
2021/01/29 03:30:30;;;;;;;1.20;0.90;;;10.90;99.90;;;;;;4943240;28;20435;-88
2021/01/29 03:33:00;;;;;;;3.73;1.23;;;10.90;99.90;;;;;;4915942;28;20451;-89
2021/01/29 03:35:38;;;;;;;2.10;1.07;;;10.90;99.90;;;;;;4944931;28;20450;-88
2021/01/29 03:38:29;;;;;;;3.43;1.23;;;10.90;99.90;;;;;;4939309;28;20462;-86
2021/01/29 03:41:12;;;;;;;1.30;1.03;;;10.80;99.90;;;;;;4927824;28;20779;-86
2021/01/29 03:43:55;;;;;;;2.37;1.17;;;10.70;99.90;;;;;;4946143;28;20475;-88
2021/01/29 03:46:33;;;;;;;1.20;1.00;;;10.60;99.90;;;;;;4936171;28;20481;-86
2021/01/29 03:49:13;;;;;;;1.10;0.90;;;10.60;99.90;;;;;;4944560;28;20461;-86
2021/01/29 03:52:00;;;;;;;1.10;1.00;;;10.50;99.90;;;;;;4940358;28;20447;-88
2021/01/29 03:54:27;;;;;;;1.30;0.80;;;10.40;99.90;;;;;;4940929;28;20554;-86
2021/01/29 03:56:59;;;;;;;1.30;1.00;;;10.40;99.90;;;;;;4941405;28;20479;-87
2021/01/29 03:59:53;;;;;;;1.10;1.00;;;10.30;99.90;;;;;;4934592;28;20450;-87
2021/01/29 04:02:37;;;;;;;1.07;0.80;;;10.30;99.90;;;;;;4926036;29;20761;-86
2021/01/29 04:05:20;;;;;;;2.20;1.00;;;10.30;99.90;;;;;;4926066;28;21000;-88
2021/01/29 04:07:53;;;;;;;1.20;1.00;;;10.30;99.90;;;;;;4926142;28;20478;-85
2021/01/29 04:10:21;;;;;;;1.93;1.37;;;10.30;99.90;;;;;;4923205;29;20438;-85
2021/01/29 04:12:52;;;;;;;1.13;1.00;;;10.20;99.90;;;;;;4923758;28;20504;-85
2021/01/29 04:15:37;;;;;;;1.10;1.00;;;10.30;99.90;;;;;;4927010;28;20465;-87
2021/01/29 04:18:26;;;;;;;3.83;1.53;;;10.20;99.90;;;;;;4941472;28;21027;-85
2021/01/29 04:20:55;;;;;;;1.10;1.00;;;10.20;99.90;;;;;;4942425;28;20482;-89
2021/01/29 04:23:39;;;;;;;1.23;0.90;;;10.20;99.90;;;;;;4925724;28;20466;-88
2021/01/29 04:26:28;;;;;;;0.90;0.80;;;10.20;99.90;;;;;;4941455;28;20479;-88
2021/01/29 04:29:22;;;;;;;0.90;0.80;;;10.20;99.90;;;;;;4939768;28;20510;-86
2021/01/29 04:31:51;;;;;;;0.90;0.80;;;10.20;99.90;;;;;;4940016;28;20434;-88
2021/01/29 04:34:27;;;;;;;1.40;0.83;;;10.20;99.90;;;;;;4926270;28;20733;-88
2021/01/29 04:37:00;;;;;;;1.20;0.90;;;10.20;99.90;;;;;;4939767;28;20438;-88
2021/01/29 04:39:33;;;;;;;1.10;0.83;;;10.20;99.90;;;;;;4942846;28;20439;-89
2021/01/29 04:42:13;;;;;;;0.90;0.80;;;10.30;99.90;;;;;;4944763;28;20478;-88
2021/01/29 04:44:53;;;;;;;4.10;0.80;;;10.30;99.90;;;;;;4940088;28;20585;-87
2021/01/29 04:47:48;;;;;;;1.00;0.80;;;10.40;99.90;;;;;;4943383;28;20978;-89
2021/01/29 04:50:52;;;;;;;1.00;0.90;;;10.40;99.90;;;;;;4929620;28;20561;-89
2021/01/29 04:53:45;;;;;;;1.10;0.83;;;10.40;99.90;;;;;;4886862;28;20473;-88
2021/01/29 04:56:29;;;;;;;1.20;0.90;;;10.40;99.90;;;;;;4946335;28;20537;-87
2021/01/29 04:59:34;;;;;;;1.00;0.80;;;10.40;99.90;;;;;;4943090;28;20576;-87
2021/01/29 05:02:09;;;;;;;0.90;0.70;;;10.30;99.90;;;;;;4936298;28;20447;-85
2021/01/29 05:04:37;;;;;;;0.90;0.80;;;10.30;99.90;;;;;;4922874;28;20761;-87
2021/01/29 05:07:37;;;;;;;0.93;0.83;;;10.20;99.90;;;;;;4941574;28;20463;-86
2021/01/29 05:10:08;;;;;;;1.10;0.80;;;10.20;99.90;;;;;;4942740;28;20440;-86
2021/01/29 05:13:10;;;;;;;1.00;0.80;;;10.20;99.90;;;;;;4936071;28;20537;-86
2021/01/29 05:16:01;;;;;;;0.90;0.80;;;10.20;99.90;;;;;;4942882;28;20457;-85
2021/01/29 05:18:48;;;;;;;1.27;1.00;;;10.30;99.90;;;;;;4944487;28;20806;-86
2021/01/29 05:21:29;;;;;;;1.00;0.80;;;10.30;99.90;;;;;;4941458;28;20533;-87
2021/01/29 05:24:10;;;;;;;0.90;0.80;;;10.30;99.90;;;;;;4941357;28;20453;-85
2021/01/29 05:26:56;;;;;;;1.00;0.80;;;10.30;99.90;;;;;;4927773;28;20438;-84
2021/01/29 05:29:31;;;;;;;1.10;0.87;;;10.30;99.90;;;;;;4927467;28;20500;-86
2021/01/29 05:32:19;;;;;;;1.10;0.90;;;10.30;99.90;;;;;;4942177;28;20564;-87
2021/01/29 05:35:02;;;;;;;1.10;0.90;;;10.30;99.90;;;;;;4944475;28;20511;-90
2021/01/29 05:37:59;;;;;;;1.57;0.90;;;10.30;99.90;;;;;;4926472;28;20439;-85
2021/01/29 05:40:30;;;;;;;1.50;0.90;;;10.30;99.90;;;;;;4942691;28;20537;-86
2021/01/29 05:43:18;;;;;;;0.90;0.80;;;10.30;99.90;;;;;;4938423;28;20446;-83
2021/01/29 05:45:49;;;;;;;1.73;1.30;;;10.30;99.90;;;;;;4927163;28;20459;-85
2021/01/29 05:48:38;;;;;;;1.10;0.90;;;10.30;99.90;;;;;;4942423;28;20481;-86
2021/01/29 05:51:42;;;;;;;1.00;0.87;;;10.30;99.90;;;;;;4901276;28;20441;-86
2021/01/29 05:54:29;;;;;;;1.10;0.97;;;10.30;99.90;;;;;;4939775;28;20510;-85
2021/01/29 05:57:24;;;;;;;1.00;0.83;;;10.30;99.90;;;;;;4944617;28;20435;-87
2021/01/29 06:00:26;;;;;;;1.00;0.90;;;10.40;99.90;;;;;;4941635;28;20719;-86
2021/01/29 06:03:08;;;;;;;1.03;0.93;;;10.40;99.90;;;;;;4941829;28;20952;-86
2021/01/29 06:05:55;;;;;;;0.97;0.83;;;10.50;99.90;;;;;;4943119;28;20434;-88
2021/01/29 06:08:57;;;;;;;1.10;0.80;;;10.50;99.90;;;;;;4932782;28;20681;-87
2021/01/29 06:11:34;;;;;;;2.10;0.90;;;10.40;99.90;;;;;;4925192;28;20478;-84
2021/01/29 06:14:38;;;;;;;1.00;0.80;;;10.50;99.90;;;;;;4940789;28;20446;-86
2021/01/29 06:17:32;;;;;;;1.20;0.83;;;10.40;99.90;;;;;;4940839;28;20446;-87
2021/01/29 06:20:06;;;;;;;1.10;0.90;;;10.40;99.90;;;;;;4943003;28;20537;-87
2021/01/29 06:23:12;;;;;;;1.27;1.03;;;10.40;99.90;;;;;;4941235;28;20434;-87
2021/01/29 06:26:03;;;;;;;1.30;0.90;;;10.40;99.90;;;;;;4939942;28;20454;-88
2021/01/29 06:28:50;;;;;;;1.00;0.90;;;10.40;99.90;;;;;;4928090;29;20638;-89
2021/01/29 06:31:15;;;;;;;1.10;0.90;;;10.40;99.90;;;;;;4941879;28;20889;-88
2021/01/29 06:33:53;;;;;;;1.30;1.00;;;10.40;99.90;;;;;;4943837;28;20565;-85
2021/01/29 06:36:37;;;;;;;1.37;1.00;;;10.50;99.90;;;;;;4944417;28;20202;-85
2021/01/29 06:39:34;;;;;;;1.53;1.13;;;10.40;99.90;;;;;;4943882;28;20518;-86
2021/01/29 06:42:24;;;;;;;0.97;0.83;;;10.40;99.90;;;;;;4943040;28;20439;-87
2021/01/29 06:45:13;;;;;;;1.00;0.90;;;10.40;99.90;;;;;;4942624;28;20485;-87
2021/01/29 06:48:00;;;;;;;1.00;0.87;;;10.50;99.90;;;;;;4927812;28;20660;-87
2021/01/29 06:51:08;;;;;;;1.73;0.90;;;10.40;99.90;;;;;;4942236;28;20468;-86
2021/01/29 06:53:46;;;;;;;2.40;1.00;;;10.40;99.90;;;;;;4923067;28;20910;-87
2021/01/29 06:56:50;;;;;;;1.80;0.83;;;10.40;99.90;;;;;;4942298;28;20771;-88
2021/01/29 06:59:55;;;;;;;1.00;0.87;;;10.50;99.90;;;;;;4915483;28;21046;-89
2021/01/29 07:02:33;;;;;;;1.00;0.90;;;10.50;99.90;;;;;;4924734;28;20534;-85
2021/01/29 07:05:01;;;;;;;1.67;0.90;;;10.50;99.90;;;;;;4944323;28;20767;-86
2021/01/29 07:08:06;;;;;;;2.80;0.97;;;10.50;99.90;;;;;;4942655;28;20423;-85
2021/01/29 07:10:53;;;;;;;1.83;1.10;;;10.50;99.90;;;;;;4941665;28;20446;-88
2021/01/29 07:13:34;;;;;;;1.93;1.83;;;10.50;99.90;;;;;;4935991;28;20455;-87
2021/01/29 07:16:12;;;;;;;2.50;1.00;;;10.50;99.90;;;;;;4941434;28;20442;-88
2021/01/29 07:19:04;;;;;;;1.10;0.90;;;10.60;99.90;;;;;;4943023;28;20446;-87
2021/01/29 07:21:36;;;;;;;1.40;1.00;;;10.70;99.90;;;;;;4942148;28;20943;-87
2021/01/29 07:24:26;;;;;;;1.30;1.10;;;10.70;99.90;;;;;;4940162;28;20615;-88
2021/01/29 07:27:21;;;;;;;1.20;0.97;;;10.70;99.90;;;;;;4938875;28;20821;-88
2021/01/29 07:29:49;;;;;;;1.10;0.80;;;10.70;99.90;;;;;;4942131;28;20522;-88
2021/01/29 07:32:28;;;;;;;1.00;0.90;;;10.80;99.90;;;;;;4925240;28;20435;-89
2021/01/29 07:35:10;;;;;;;1.00;0.80;;;10.70;99.90;;;;;;4939792;28;20466;-87
2021/01/29 07:37:41;;;;;;;1.20;0.90;;;10.80;99.90;;;;;;4938189;28;20440;-88
2021/01/29 07:40:35;;;;;;;1.87;1.27;;;10.80;99.90;;;;;;4924278;28;20792;-86
2021/01/29 07:43:36;;;;;;;1.10;0.90;;;10.80;99.90;;;;;;4915740;28;20467;-87
2021/01/29 07:46:37;;;;;;;1.23;0.93;;;10.80;99.90;;;;;;4931691;28;20988;-88
2021/01/29 07:49:29;;;;;;;1.70;1.40;;;10.90;99.90;;;;;;4922773;28;20477;-89
2021/01/29 07:52:07;;;;;;;2.80;1.13;;;10.90;99.90;;;;;;4923797;28;20449;-88
2021/01/29 07:54:42;;;;;;;1.00;0.87;;;10.90;99.90;;;;;;4939450;28;20506;-86
2021/01/29 07:57:26;;;;;;;1.00;0.90;;;11.00;99.90;;;;;;4939279;28;20572;-88
2021/01/29 08:00:15;;;;;;;1.10;1.00;;;11.00;99.90;;;;;;4943368;28;20445;-88
2021/01/29 08:03:12;;;;;;;6.00;0.90;;;11.00;99.90;;;;;;4925167;28;20443;-87
2021/01/29 08:06:04;;;;;;;1.10;0.93;;;11.00;99.90;;;;;;4941046;28;20889;-87
2021/01/29 08:08:36;;;;;;;3.83;1.03;;;11.00;99.90;;;;;;4942617;28;20478;-89
2021/01/29 08:11:06;;;;;;;1.67;0.90;;;11.00;99.90;;;;;;4938091;28;20473;-87
2021/01/29 08:13:32;;;;;;;2.17;1.03;;;11.10;99.90;;;;;;4940701;28;20450;-86
2021/01/29 08:16:31;;;;;;;1.13;1.03;;;11.10;99.90;;;;;;4941512;28;20450;-87
2021/01/29 08:19:13;;;;;;;1.10;1.00;;;11.00;99.90;;;;;;4934773;28;20226;-85
2021/01/29 08:22:01;;;;;;;1.00;0.80;;;10.80;99.90;;;;;;4940168;28;20879;-87
2021/01/29 08:25:08;;;;;;;1.07;0.80;;;10.70;99.90;;;;;;4926296;28;20463;-87
2021/01/29 08:28:18;;;;;;;1.00;0.90;;;10.70;99.90;;;;;;4925679;28;20458;-86
2021/01/29 08:30:59;;;;;;;1.20;1.10;;;10.60;99.90;;;;;;4902666;29;20921;-87
2021/01/29 08:34:18;;;;;;;1.67;1.00;;;10.60;99.90;;;;;;4943249;28;20569;-87
2021/01/29 08:37:21;;;;;;;1.37;1.00;;;10.70;99.90;;;;;;4890079;29;20452;-87
2021/01/29 08:40:08;;;;;;;1.00;0.80;;;10.70;99.90;;;;;;4943119;28;20434;-88
2021/01/29 08:43:10;;;;;;;1.03;0.87;;;10.80;99.90;;;;;;4940299;28;20466;-86
2021/01/29 08:45:40;;;;;;;1.23;1.00;;;10.90;99.90;;;;;;4926705;28;20462;-86
2021/01/29 08:48:29;;;;;;;2.60;1.27;;;10.90;99.90;;;;;;4945485;28;21011;-84
2021/01/29 08:51:09;;;;;;;2.00;1.23;;;11.00;99.90;;;;;;4948281;28;20445;-87
2021/01/29 08:54:02;;;;;;;1.10;1.00;;;11.00;99.90;;;;;;4929210;28;20469;-87
2021/01/29 08:56:46;;;;;;;2.17;1.23;;;11.10;99.90;;;;;;4939385;28;20440;-89
2021/01/29 08:59:17;;;;;;;2.60;1.33;;;11.30;99.90;;;;;;4948343;28;20424;-89
2021/01/29 09:02:03;;;;;;;1.67;1.20;;;11.40;99.90;;;;;;4930639;28;20455;-88
2021/01/29 09:04:41;;;;;;;1.60;1.00;;;11.50;99.90;;;;;;4928652;28;20470;-88
2021/01/29 09:07:39;;;;;;;1.80;1.10;;;11.60;99.90;;;;;;4946684;28;20449;-89
2021/01/29 09:10:25;;;;;;;3.20;1.40;;;11.70;99.90;;;;;;4925144;28;20981;-88
2021/01/29 09:12:59;;;;;;;2.70;1.17;;;11.90;99.90;;;;;;4947475;28;20644;-87
2021/01/29 09:15:37;;;;;;;1.27;1.17;;;11.90;99.90;;;;;;4948580;28;20441;-87
2021/01/29 09:18:12;;;;;;;3.80;1.10;;;11.90;99.90;;;;;;4931990;28;20441;-87
2021/01/29 09:21:04;;;;;;;2.50;1.10;;;11.90;99.90;;;;;;4931525;28;21054;-87
2021/01/29 09:23:37;;;;;;;2.17;1.30;;;12.00;99.90;;;;;;4924489;28;20897;-88
2021/01/29 09:26:32;;;;;;;2.13;1.30;;;12.00;99.90;;;;;;4924830;28;20477;-88
2021/01/29 09:29:27;;;;;;;3.97;1.50;;;12.00;99.90;;;;;;4915507;28;20580;-86
2021/01/29 09:31:59;;;;;;;4.03;3.53;;;12.00;99.90;;;;;;4926237;28;20463;-88
2021/01/29 09:34:35;;;;;;;2.77;1.20;;;12.10;99.90;;;;;;4930573;29;20463;-87
2021/01/29 09:37:33;;;;;;;2.17;1.30;;;12.10;99.90;;;;;;4929519;28;20833;-87
2021/01/29 09:40:04;;;;;;;4.20;1.30;;;12.10;99.90;;;;;;4933609;28;21018;-88
2021/01/29 09:42:48;;;;;;;5.20;1.87;;;12.00;99.90;;;;;;4930165;28;20439;-89
2021/01/29 09:45:38;;;;;;;6.17;1.70;;;12.10;99.90;;;;;;4933245;28;20467;-88
2021/01/29 09:48:06;;;;;;;3.37;1.60;;;12.10;99.90;;;;;;4950226;28;20550;-89
2021/01/29 09:50:33;;;;;;;3.67;1.50;;;12.20;99.90;;;;;;4949078;28;20431;-87
2021/01/29 09:53:08;;;;;;;5.20;1.60;;;12.30;99.90;;;;;;4930149;28;20429;-86
2021/01/29 09:55:54;;;;;;;2.47;1.40;;;12.30;99.90;;;;;;4928741;28;20493;-87
2021/01/29 09:58:25;;;;;;;2.53;1.57;;;12.20;99.90;;;;;;4931013;29;20797;-86
2021/01/29 10:01:07;;;;;;;4.83;1.73;;;12.30;99.90;;;;;;4949507;28;20474;-87
2021/01/29 10:03:45;;;;;;;4.13;1.77;;;12.40;99.90;;;;;;4914033;28;20566;-89
2021/01/29 10:06:24;;;;;;;3.07;1.90;;;12.40;99.90;;;;;;4942585;28;20439;-88
2021/01/29 10:08:55;;;;;;;2.77;1.70;;;12.50;99.90;;;;;;4943697;28;21023;-83
2021/01/29 10:11:28;;;;;;;5.40;1.93;;;12.60;99.90;;;;;;4945699;28;20431;-82
2021/01/29 10:14:31;;;;;;;3.33;1.70;;;12.70;99.90;;;;;;4929080;28;20455;-81
2021/01/29 10:17:10;;;;;;;4.47;1.70;;;12.70;99.90;;;;;;4949184;28;20506;-83
2021/01/29 10:19:42;;;;;;;2.47;1.93;;;12.90;99.90;;;;;;4943657;28;20429;-79
2021/01/29 10:22:42;;;;;;;3.67;1.87;;;13.00;99.90;;;;;;4949126;28;20475;-80
2021/01/29 10:25:29;;;;;;;3.57;1.60;;;12.90;99.90;;;;;;4953845;28;20451;-80
2021/01/29 10:28:11;;;;;;;3.20;1.50;;;12.90;99.90;;;;;;4945077;28;20470;-82
2021/01/29 10:30:46;;;;;;;4.00;1.70;;;12.80;99.90;;;;;;4947741;28;20460;-86
2021/01/29 10:33:36;;;;;;;4.43;1.43;;;12.90;99.90;;;;;;4946823;28;20449;-81
2021/01/29 10:36:31;;;;;;;4.60;1.37;;;12.80;99.90;;;;;;4929961;28;21023;-81
2021/01/29 10:39:03;;;;;;;5.60;1.60;;;12.80;99.90;;;;;;4950175;28;20481;-81
2021/01/29 10:42:04;;;;;;;2.40;1.33;;;12.90;99.90;;;;;;4946340;28;20462;-81
2021/01/29 10:44:35;;;;;;;2.50;1.30;;;13.00;99.90;;;;;;4931378;28;21207;-84
2021/01/29 10:47:28;;;;;;;4.73;2.10;;;13.20;99.90;;;;;;4948371;28;20442;-84
2021/01/29 10:50:14;;;;;;;3.50;1.60;;;13.30;99.90;;;;;;4934846;28;20478;-83
2021/01/29 10:52:42;;;;;;;2.93;1.50;;;13.20;99.90;;;;;;4948769;28;20432;-82
2021/01/29 10:55:20;;;;;;;8.80;1.73;;;13.20;99.90;;;;;;4936865;28;20451;-84
2021/01/29 10:58:18;;;;;;;4.33;1.33;;;13.20;99.90;;;;;;4951255;28;21205;-83
2021/01/29 11:00:59;;;;;;;3.73;1.60;;;13.20;99.90;;;;;;4955534;28;20510;-85
2021/01/29 11:03:40;;;;;;;2.67;1.20;;;13.10;99.90;;;;;;4950854;28;20454;-80
2021/01/29 11:06:10;;;;;;;4.80;1.80;;;13.00;99.90;;;;;;4946916;28;20518;-80
2021/01/29 11:08:42;;;;;;;4.37;1.50;;;12.90;99.90;;;;;;4950504;28;20823;-81
2021/01/29 11:11:35;;;;;;;1.63;1.17;;;12.80;99.90;;;;;;4927694;28;20485;-82
2021/01/29 11:14:23;;;;;;;7.10;2.20;;;12.80;99.90;;;;;;4935988;28;20856;-83
2021/01/29 11:17:05;;;;;;;9.13;2.13;;;12.80;99.90;;;;;;4949989;28;20825;-83
2021/01/29 11:19:35;;;;;;;6.00;2.57;;;12.90;99.90;;;;;;4951095;28;20446;-83
2021/01/29 11:22:07;;;;;;;3.37;1.27;;;13.00;99.90;;;;;;4952464;28;20434;-83
2021/01/29 11:25:00;;;;;;;3.10;1.50;;;13.00;99.90;;;;;;4949933;28;20475;-83
2021/01/29 11:27:38;;;;;;;1.63;1.30;;;13.10;99.90;;;;;;4944401;28;20518;-79
2021/01/29 11:30:16;;;;;;;3.73;1.40;;;13.10;99.90;;;;;;4945617;28;20438;-84
2021/01/29 11:32:50;;;;;;;6.70;1.70;;;13.10;99.90;;;;;;4954177;28;20944;-82
2021/01/29 11:36:07;;;;;;;8.83;2.00;;;13.00;99.90;;;;;;4946159;28;20456;-83
2021/01/29 11:39:01;;;;;;;3.90;1.47;;;13.00;99.90;;;;;;4938930;28;20462;-81
2021/01/29 11:41:49;;;;;;;7.13;1.67;;;12.70;99.90;;;;;;4952271;28;20439;-84
2021/01/29 11:44:55;;;;;;;2.50;1.20;;;12.70;99.90;;;;;;4948349;28;20534;-82
2021/01/29 11:47:46;;;;;;;4.07;1.80;;;12.70;99.90;;;;;;4948450;28;20815;-84
2021/01/29 11:50:18;;;;;;;3.83;1.53;;;12.70;99.90;;;;;;4950831;28;20445;-84
2021/01/29 11:52:57;;;;;;;7.33;1.57;;;12.80;99.90;;;;;;4947429;28;20432;-83
2021/01/29 11:55:28;;;;;;;11.50;1.83;;;12.80;99.90;;;;;;4945780;28;20441;-84
2021/01/29 11:58:12;;;;;;;5.43;1.50;;;12.80;99.90;;;;;;4946023;28;20731;-83
2021/01/29 12:00:56;;;;;;;2.07;1.13;;;12.90;99.90;;;;;;4946326;28;20848;-82
2021/01/29 12:03:49;;;;;;;3.70;1.33;;;12.90;99.90;;;;;;4944653;28;20466;-84
2021/01/29 12:06:23;;;;;;;7.73;1.90;;;12.90;99.90;;;;;;4928684;28;20442;-84
2021/01/29 12:09:05;;;;;;;3.73;1.43;;;12.80;99.90;;;;;;4948065;28;20469;-86
2021/01/29 12:11:58;;;;;;;6.43;1.67;;;12.90;99.90;;;;;;4949625;28;21443;-84
2021/01/29 12:14:50;;;;;;;3.23;1.63;;;12.90;99.90;;;;;;4943887;28;20458;-84
2021/01/29 12:17:22;;;;;;;5.83;1.77;;;12.80;99.90;;;;;;4944357;28;20454;-85
2021/01/29 12:19:48;;;;;;;4.83;1.50;;;12.30;99.90;;;;;;4945500;28;20875;-84
2021/01/29 12:22:30;;;;;;;2.33;1.50;;;11.90;99.90;;;;;;4930548;28;20809;-83
2021/01/29 12:25:27;;;;;;;10.23;1.93;;;11.60;99.90;;;;;;4947021;28;20474;-85
2021/01/29 12:28:11;;;;;;;1.80;1.33;;;11.30;99.90;;;;;;4928839;28;20505;-84
2021/01/29 12:30:44;;;;;;;2.33;1.30;;;10.90;99.90;;;;;;4953899;28;20441;-83
2021/01/29 12:33:22;;;;;;;4.23;1.20;;;10.70;99.90;;;;;;4950604;28;20869;-84
2021/01/29 12:35:53;;;;;;;8.50;1.73;;;10.60;99.90;;;;;;4934317;28;20433;-82
2021/01/29 12:38:30;;;;;;;3.50;1.50;;;10.50;99.90;;;;;;4948591;28;20787;-85
2021/01/29 12:41:17;;;;;;;3.63;1.30;;;10.60;99.90;;;;;;4943788;28;20454;-85
2021/01/29 12:44:07;;;;;;;2.13;1.57;;;10.60;99.90;;;;;;4939405;28;20488;-84
2021/01/29 12:47:17;;;;;;;3.27;1.53;;;10.70;99.90;;;;;;4946176;28;20439;-86
2021/01/29 12:49:56;;;;;;;3.50;2.00;;;10.80;99.90;;;;;;4927407;28;20901;-86
2021/01/29 12:52:49;;;;;;;1.60;1.20;;;10.80;99.90;;;;;;4941411;28;20523;-86
2021/01/29 12:55:34;;;;;;;2.50;1.00;;;11.00;99.90;;;;;;4946737;28;20812;-84
2021/01/29 12:58:09;;;;;;;2.90;1.30;;;11.10;99.90;;;;;;4948417;28;20430;-84
2021/01/29 13:00:39;;;;;;;2.27;1.10;;;11.00;99.90;;;;;;4932748;28;20561;-85
2021/01/29 13:03:39;;;;;;;1.50;1.03;;;11.00;99.90;;;;;;4949095;28;20447;-88
2021/01/29 13:06:27;;;;;;;3.07;1.63;;;11.10;99.90;;;;;;4934178;29;20498;-87
2021/01/29 13:08:58;;;;;;;2.80;1.20;;;11.30;99.90;;;;;;4948934;28;20469;-86
2021/01/29 13:11:36;;;;;;;1.97;1.23;;;11.30;99.90;;;;;;4932840;29;21027;-84
2021/01/29 13:14:18;;;;;;;4.53;1.60;;;11.40;99.90;;;;;;4941568;28;20462;-87
2021/01/29 13:17:23;;;;;;;1.40;1.10;;;11.40;99.90;;;;;;4948151;28;20426;-85
2021/01/29 13:19:59;;;;;;;4.97;1.47;;;11.30;99.90;;;;;;4931698;28;20434;-87
2021/01/29 13:22:56;;;;;;;4.30;2.40;;;11.20;99.90;;;;;;4947894;28;20984;-85
2021/01/29 13:25:29;;;;;;;5.13;1.60;;;11.20;99.90;;;;;;4944936;28;20494;-85
2021/01/29 13:28:17;;;;;;;3.73;1.33;;;11.20;99.90;;;;;;4935963;28;20554;-86
2021/01/29 13:30:43;;;;;;;3.73;1.50;;;11.30;99.90;;;;;;4945304;28;20798;-86
2021/01/29 13:33:25;;;;;;;2.50;1.47;;;11.20;99.90;;;;;;4933448;28;20812;-87
2021/01/29 13:36:02;;;;;;;2.07;1.60;;;11.20;99.90;;;;;;4947264;28;21024;-87
2021/01/29 13:38:39;;;;;;;7.30;1.90;;;11.20;99.90;;;;;;4946616;28;20418;-85
2021/01/29 13:41:10;;;;;;;1.97;1.40;;;11.10;99.90;;;;;;4952621;28;20433;-87
2021/01/29 13:43:36;;;;;;;8.60;1.50;;;11.00;99.90;;;;;;4931413;28;20455;-87
2021/01/29 13:46:22;;;;;;;2.43;1.30;;;10.90;99.90;;;;;;4949931;28;20438;-84
2021/01/29 13:48:48;;;;;;;2.47;2.10;;;10.90;99.90;;;;;;4949664;28;20497;-87
2021/01/29 13:51:33;;;;;;;2.90;1.63;;;10.70;99.90;;;;;;4938112;28;20431;-85
2021/01/29 13:54:00;;;;;;;1.93;1.40;;;10.60;99.90;;;;;;4951494;28;20203;-89
2021/01/29 13:56:33;;;;;;;4.20;1.47;;;10.40;99.90;;;;;;4918471;28;20467;-86
2021/01/29 13:59:31;;;;;;;3.77;1.30;;;10.30;99.90;;;;;;4952746;28;20777;-87
2021/01/29 14:02:33;;;;;;;2.67;2.03;;;10.20;99.90;;;;;;4949464;28;20443;-88